createdAt,value
2022-10-17T00:02:03.501Z,101045.56
2022-10-17T00:07:05.789Z,101049.25
2022-10-17T00:09:32.181Z,101042.44
2022-10-17T00:11:58.515Z,101047.25
2022-10-17T00:14:24.827Z,101035.38
2022-10-17T00:16:51.115Z,101048.41
2022-10-17T00:19:17.386Z,101051.78
2022-10-17T00:21:43.653Z,101046.56
2022-10-17T00:24:10.002Z,101051.53
2022-10-17T00:26:36.424Z,101044.72
2022-10-17T00:29:03.265Z,101052.09
2022-10-17T00:31:29.751Z,101051.41
2022-10-17T00:33:56.105Z,101054.63
2022-10-17T00:36:25.290Z,101052.78
2022-10-17T00:38:57.560Z,101059.16
2022-10-17T00:41:30.115Z,101063.66
2022-10-17T00:44:06.307Z,101066.34
2022-10-17T00:46:36.211Z,101076.81
2022-10-17T00:49:06.740Z,101068.28
2022-10-17T00:51:54.990Z,101069.22
2022-10-17T00:54:25.309Z,101075.69
2022-10-17T00:56:52.332Z,101071.03
2022-10-17T00:59:21.711Z,101079.38
2022-10-17T01:01:56.597Z,101080.34
2022-10-17T01:04:22.917Z,101088.69
2022-10-17T01:06:49.232Z,101079.63
2022-10-17T01:09:15.663Z,101078.91
2022-10-17T01:11:55.678Z,101079.28
2022-10-17T01:14:31.507Z,101074.66
2022-10-17T01:17:11.731Z,101074.91
2022-10-17T01:19:55.940Z,101065.97
2022-10-17T01:22:45.288Z,101070.25
2022-10-17T01:25:29.739Z,101071.22
2022-10-17T01:28:14.228Z,101067.81
2022-10-17T01:31:09.223Z,101067.69
2022-10-17T01:33:46.201Z,101067.69
2022-10-17T01:36:25.974Z,101062.72
2022-10-17T01:39:02.114Z,101063.28
2022-10-17T01:41:40.316Z,101058.66
2022-10-17T01:44:27.176Z,101065.72
2022-10-17T01:47:03.369Z,101056.22
2022-10-17T01:49:32.091Z,101061.44
2022-10-17T01:52:06.336Z,101061.44
2022-10-17T01:54:44.448Z,101065.84
2022-10-17T01:57:43.232Z,101063.03
2022-10-17T02:00:13.566Z,101052.53
2022-10-17T02:02:42.054Z,101054.38
2022-10-17T02:05:08.721Z,101055.84
2022-10-17T02:07:35.263Z,101052.31
2022-10-17T02:10:04.460Z,101063.22
2022-10-17T02:13:06.097Z,101062.50
2022-10-17T02:15:47.596Z,101060.47
2022-10-17T02:18:23.574Z,101070.03
2022-10-17T02:21:15.420Z,101060.06
2022-10-17T02:23:57.863Z,101062.31
2022-10-17T02:26:57.661Z,101056.75
2022-10-17T02:29:31.145Z,101062.63
2022-10-17T02:32:17.696Z,101064.13
2022-10-17T02:34:50.046Z,101060.88
2022-10-17T02:37:22.767Z,101069.63
2022-10-17T02:39:50.761Z,101060.72
2022-10-17T02:42:19.242Z,101069.78
2022-10-17T02:44:46.885Z,101067.94
2022-10-17T02:47:21.210Z,101068.66
2022-10-17T02:49:51.514Z,101061.72
2022-10-17T02:52:27.702Z,101079.53
2022-10-17T02:55:11.409Z,101065.81
2022-10-17T02:57:41.881Z,101064.00
2022-10-17T03:00:11.079Z,101065.69
2022-10-17T03:02:46.011Z,101071.19
2022-10-17T03:05:15.612Z,101063.41
2022-10-17T03:07:41.958Z,101070.22
2022-10-17T03:10:08.376Z,101064.25
2022-10-17T03:12:34.712Z,101069.38
2022-10-17T03:15:01.046Z,101072.06
2022-10-17T03:17:27.344Z,101073.31
2022-10-17T03:19:53.744Z,101082.09
2022-10-17T03:22:20.241Z,101085.75
2022-10-17T03:24:46.617Z,101087.59
2022-10-17T03:27:12.958Z,101093.97
2022-10-17T03:29:39.254Z,101098.84
2022-10-17T03:32:05.733Z,101096.22
2022-10-17T03:34:32.255Z,101099.53
2022-10-17T03:36:58.562Z,101103.78
2022-10-17T03:39:24.992Z,101105.16
2022-10-17T03:41:51.328Z,101111.41
2022-10-17T03:44:17.643Z,101107.94
2022-10-17T03:46:44.273Z,101111.41
2022-10-17T03:49:10.590Z,101112.47
2022-10-17T03:51:37.231Z,101119.69
2022-10-17T03:54:03.911Z,101115.16
2022-10-17T03:56:30.449Z,101114.31
2022-10-17T03:58:56.728Z,101109.81
2022-10-17T04:01:23.442Z,101125.19
2022-10-17T04:03:51.661Z,101128.59
2022-10-17T04:06:18.965Z,101127.50
2022-10-17T04:08:45.403Z,101131.75
2022-10-17T04:11:15.725Z,101132.63
2022-10-17T04:13:42.229Z,101134.31
2022-10-17T04:16:12.674Z,101123.56
2022-10-17T04:18:39.153Z,101126.97
2022-10-17T04:21:07.026Z,101129.53
2022-10-17T04:23:34.359Z,101127.84
2022-10-17T04:26:01.656Z,101128.69
2022-10-17T04:28:28.407Z,101131.38
2022-10-17T04:31:08.054Z,101123.31
2022-10-17T04:33:34.587Z,101123.56
2022-10-17T04:36:10.482Z,101121.38
2022-10-17T04:38:36.941Z,101128.94
2022-10-17T04:41:06.915Z,101130.41
2022-10-17T04:43:36.070Z,101137.00
2022-10-17T04:46:05.757Z,101132.25
2022-10-17T04:48:32.787Z,101135.31
2022-10-17T04:51:05.822Z,101143.84
2022-10-17T04:53:34.395Z,101138.97
2022-10-17T04:56:00.749Z,101141.66
2022-10-17T04:58:29.976Z,101144.09
2022-10-17T05:00:56.659Z,101144.81
2022-10-17T05:03:22.977Z,101144.22
2022-10-17T05:05:49.241Z,101152.03
2022-10-17T05:08:15.677Z,101145.22
2022-10-17T05:10:44.586Z,101142.16
2022-10-17T05:13:11.680Z,101147.78
2022-10-17T05:15:38.253Z,101145.81
2022-10-17T05:18:05.831Z,101145.69
2022-10-17T05:20:32.507Z,101132.38
2022-10-17T05:22:59.816Z,101142.28
2022-10-17T05:25:26.130Z,101142.28
2022-10-17T05:27:53.596Z,101142.16
2022-10-17T05:30:20.141Z,101140.44
2022-10-17T05:32:46.482Z,101152.63
2022-10-17T05:35:12.808Z,101156.56
2022-10-17T05:37:39.183Z,101155.13
2022-10-17T05:40:05.968Z,101146.09
2022-10-17T05:42:32.885Z,101161.56
2022-10-17T05:44:59.487Z,101159.88
2022-10-17T05:47:25.810Z,101148.75
2022-10-17T05:49:52.608Z,101160.63
2022-10-17T05:52:19.139Z,101148.44
2022-10-17T05:54:45.547Z,101154.00
2022-10-17T05:57:12.028Z,101162.69
2022-10-17T05:59:38.307Z,101157.44
2022-10-17T06:02:04.718Z,101168.06
2022-10-17T06:04:31.358Z,101171.72
2022-10-17T06:06:57.670Z,101174.41
2022-10-17T06:09:24.283Z,101175.25
2022-10-17T06:11:50.589Z,101168.53
2022-10-17T06:14:16.964Z,101181.25
2022-10-17T06:16:43.629Z,101190.75
2022-10-17T06:19:11.428Z,101188.56
2022-10-17T06:21:38.717Z,101192.34
2022-10-17T06:24:05.415Z,101195.41
2022-10-17T06:26:31.754Z,101192.34
2022-10-17T06:28:58.090Z,101195.63
2022-10-17T06:31:24.479Z,101191.13
2022-10-17T06:33:50.787Z,101178.53
2022-10-17T06:36:17.152Z,101191.00
2022-10-17T06:38:43.466Z,101193.16
2022-10-17T06:41:14.020Z,101200.00
2022-10-17T06:43:47.656Z,101207.44
2022-10-17T06:46:15.999Z,101207.81
2022-10-17T06:48:42.665Z,101207.53
2022-10-17T06:51:11.882Z,101208.13
2022-10-17T06:53:40.184Z,101211.03
2022-10-17T06:56:08.252Z,101213.94
2022-10-17T06:58:38.961Z,101210.91
2022-10-17T07:01:10.455Z,101210.38
2022-10-17T07:03:37.316Z,101213.75
2022-10-17T07:08:55.653Z,101216.38
2022-10-17T07:11:23.171Z,101224.66
2022-10-17T07:13:49.598Z,101228.78
2022-10-17T07:16:16.320Z,101235.22
2022-10-17T07:18:43.066Z,101242.38
2022-10-17T07:21:09.969Z,101237.25
2022-10-17T07:23:37.082Z,101241.97
2022-10-17T07:26:07.335Z,101239.66
2022-10-17T07:28:35.119Z,101238.44
2022-10-17T07:31:10.043Z,101242.03
2022-10-17T07:33:36.551Z,101243.09
2022-10-17T07:36:04.457Z,101243.47
2022-10-17T07:38:31.017Z,101249.47
2022-10-17T07:41:01.895Z,101243.09
2022-10-17T07:43:28.787Z,101240.69
2022-10-17T07:45:55.126Z,101251.34
2022-10-17T07:48:23.157Z,101257.75
2022-10-17T07:50:49.866Z,101243.13
2022-10-17T07:53:16.724Z,101245.50
2022-10-17T07:55:44.672Z,101234.41
2022-10-17T07:58:10.996Z,101244.88
2022-10-17T08:00:37.566Z,101242.25
2022-10-17T08:03:04.510Z,101235.09
2022-10-17T08:05:31.670Z,101241.00
2022-10-17T08:07:58.177Z,101254.31
2022-10-17T08:10:29.231Z,101246.34
2022-10-17T08:12:56.828Z,101246.50
2022-10-17T08:15:27.956Z,101251.06
2022-10-17T08:17:58.478Z,101255.19
2022-10-17T08:20:24.834Z,101256.03
2022-10-17T08:22:54.957Z,101251.31
2022-10-17T08:25:21.907Z,101249.00
2022-10-17T08:27:48.959Z,101258.53
2022-10-17T08:30:15.772Z,101264.03
2022-10-17T08:32:42.178Z,101259.63
2022-10-17T08:35:09.266Z,101261.94
2022-10-17T08:37:35.561Z,101263.94
2022-10-17T08:40:01.932Z,101247.31
2022-10-17T08:42:50.960Z,101263.31
2022-10-17T08:45:23.538Z,101256.44
2022-10-17T08:47:59.809Z,101258.16
2022-10-17T08:50:40.291Z,101261.69
2022-10-17T08:53:43.608Z,101254.91
2022-10-17T08:56:44.054Z,101258.53
2022-10-17T08:59:29.454Z,101257.22
2022-10-17T09:02:15.939Z,101254.91
2022-10-17T09:05:07.379Z,101268.13
2022-10-17T09:07:45.809Z,101263.94
2022-10-17T09:10:26.849Z,101271.25
2022-10-17T09:13:19.372Z,101267.09
2022-10-17T09:16:09.595Z,101264.94
2022-10-17T09:18:47.409Z,101273.94
2022-10-17T09:21:51.947Z,101279.75
2022-10-17T09:24:25.293Z,101279.78
2022-10-17T09:26:52.752Z,101278.28
2022-10-17T09:29:22.828Z,101274.22
2022-10-17T09:31:52.736Z,101277.78
2022-10-17T09:34:20.371Z,101276.81
2022-10-17T09:36:48.271Z,101284.34
2022-10-17T09:39:18.464Z,101280.97
2022-10-17T09:41:50.138Z,101284.72
2022-10-17T09:44:19.218Z,101285.75
2022-10-17T09:47:15.156Z,101289.50
2022-10-17T09:49:43.816Z,101294.59
2022-10-17T09:52:17.695Z,101290.00
2022-10-17T09:54:51.044Z,101299.69
2022-10-17T09:57:19.746Z,101294.25
2022-10-17T09:59:55.942Z,101295.25
2022-10-17T10:02:24.749Z,101296.63
2022-10-17T10:05:06.665Z,101303.06
2022-10-17T10:07:37.208Z,101294.19
2022-10-17T10:10:06.616Z,101294.88
2022-10-17T10:12:36.472Z,101283.97
2022-10-17T10:15:37.515Z,101283.56
2022-10-17T10:18:24.492Z,101269.56
2022-10-17T10:21:12.774Z,101291.56
2022-10-17T10:23:44.078Z,101297.63
2022-10-17T10:26:22.167Z,101300.84
2022-10-17T10:28:55.793Z,101300.97
2022-10-17T10:31:37.982Z,101296.84
2022-10-17T10:34:27.002Z,101298.94
2022-10-17T10:37:00.864Z,101297.66
2022-10-17T10:39:41.903Z,101306.06
2022-10-17T10:42:19.884Z,101311.22
2022-10-17T10:44:47.072Z,101307.66
2022-10-17T10:47:20.611Z,101305.16
2022-10-17T10:49:47.363Z,101310.25
2022-10-17T10:52:22.350Z,101310.63
2022-10-17T10:54:57.833Z,101308.75
2022-10-17T10:57:30.809Z,101303.31
2022-10-17T11:00:05.104Z,101298.22
2022-10-17T11:02:53.017Z,101297.06
2022-10-17T11:05:39.879Z,101306.59
2022-10-17T11:08:18.055Z,101306.78
2022-10-17T11:11:03.513Z,101313.41
2022-10-17T11:13:50.685Z,101312.66
2022-10-17T11:16:23.435Z,101311.41
2022-10-17T11:18:59.659Z,101309.91
2022-10-17T11:21:48.696Z,101296.88
2022-10-17T11:24:24.500Z,101297.03
2022-10-17T11:27:07.610Z,101295.63
2022-10-17T11:29:40.209Z,101308.34
2022-10-17T11:32:17.778Z,101309.19
2022-10-17T11:34:47.712Z,101312.25
2022-10-17T11:37:34.891Z,101317.69
2022-10-17T11:40:07.989Z,101314.19
2022-10-17T11:42:47.097Z,101314.69
2022-10-17T11:45:19.572Z,101313.63
2022-10-17T11:47:51.456Z,101334.84
2022-10-17T11:53:20.484Z,101313.16
2022-10-17T11:55:47.699Z,101323.66
2022-10-17T11:58:22.962Z,101311.00
2022-10-17T12:01:11.206Z,101308.97
2022-10-17T12:04:02.784Z,101300.56
2022-10-17T12:07:07.036Z,101295.34
2022-10-17T12:10:00.490Z,101297.78
2022-10-17T12:12:34.676Z,101292.84
2022-10-17T12:15:24.347Z,101301.69
2022-10-17T12:18:03.053Z,101304.47
2022-10-17T12:20:31.008Z,101306.38
2022-10-17T12:23:03.263Z,101300.22
2022-10-17T12:25:33.734Z,101306.13
2022-10-17T12:28:06.183Z,101305.13
2022-10-17T12:30:33.443Z,101308.13
2022-10-17T12:33:07.031Z,101298.69
2022-10-17T12:35:37.240Z,101300.53
2022-10-17T12:38:16.128Z,101304.31
2022-10-17T12:40:47.736Z,101300.94
2022-10-17T12:43:17.747Z,101309.75
2022-10-17T12:45:55.156Z,101309.31
2022-10-17T12:48:36.579Z,101295.22
2022-10-17T12:53:59.166Z,101305.06
2022-10-17T12:56:41.087Z,101310.31
2022-10-17T12:59:22.308Z,101310.53
2022-10-17T13:01:58.202Z,101306.16
2022-10-17T13:04:25.492Z,101293.38
2022-10-17T13:06:57.097Z,101298.03
2022-10-17T13:09:32.374Z,101294.06
2022-10-17T13:12:02.742Z,101294.22
2022-10-17T13:14:31.518Z,101302.28
2022-10-17T13:17:06.211Z,101300.66
2022-10-17T13:19:44.637Z,101295.78
2022-10-17T13:22:18.425Z,101302.78
2022-10-17T13:24:45.343Z,101312.91
2022-10-17T13:27:33.135Z,101313.97
2022-10-17T13:30:01.843Z,101307.56
2022-10-17T13:32:39.091Z,101308.59
2022-10-17T13:35:09.645Z,101310.66
2022-10-17T13:37:37.487Z,101313.22
2022-10-17T13:40:16.249Z,101316.09
2022-10-17T13:42:52.594Z,101319.34
2022-10-17T13:45:26.400Z,101321.81
2022-10-17T13:47:53.162Z,101326.50
2022-10-17T13:50:42.946Z,101326.16
2022-10-17T13:53:24.273Z,101319.47
2022-10-17T13:56:34.485Z,101334.00
2022-10-17T13:59:08.448Z,101324.13
2022-10-17T14:01:35.025Z,101327.81
2022-10-17T14:04:08.967Z,101327.63
2022-10-17T14:06:47.867Z,101329.72
2022-10-17T14:09:20.403Z,101322.91
2022-10-17T14:11:59.084Z,101329.97
2022-10-17T14:14:26.665Z,101336.16
2022-10-17T14:16:53.258Z,101327.34
2022-10-17T14:19:25.213Z,101329.66
2022-10-17T14:21:56.923Z,101330.91
2022-10-17T14:24:23.362Z,101323.91
2022-10-17T14:26:54.732Z,101335.88
2022-10-17T14:29:32.404Z,101335.88
2022-10-17T14:32:10.729Z,101329.00
2022-10-17T14:34:40.480Z,101334.34
2022-10-17T14:37:28.095Z,101342.00
2022-10-17T14:39:57.243Z,101341.16
2022-10-17T14:42:23.635Z,101343.50
2022-10-17T14:44:51.713Z,101347.56
2022-10-17T14:47:43.364Z,101357.56
2022-10-17T14:50:10.321Z,101350.41
2022-10-17T14:52:38.761Z,101353.31
2022-10-17T14:55:23.467Z,101354.63
2022-10-17T14:57:50.295Z,101365.22
2022-10-17T15:00:18.991Z,101361.22
2022-10-17T15:02:47.137Z,101365.66
2022-10-17T15:07:41.005Z,101375.75
2022-10-17T15:10:23.179Z,101368.03
2022-10-17T15:12:58.951Z,101368.72
2022-10-17T15:15:31.679Z,101372.09
2022-10-17T15:17:58.826Z,101369.25
2022-10-17T15:20:27.877Z,101375.66
2022-10-17T15:22:54.614Z,101377.84
2022-10-17T15:25:21.647Z,101379.97
2022-10-17T15:27:48.096Z,101384.81
2022-10-17T15:30:24.271Z,101375.34
2022-10-17T15:32:52.278Z,101374.50
2022-10-17T15:35:19.918Z,101372.25
2022-10-17T15:37:46.767Z,101367.78
2022-10-17T15:40:18.772Z,101362.47
2022-10-17T15:42:45.283Z,101373.03
2022-10-17T15:45:15.174Z,101374.63
2022-10-17T15:47:43.036Z,101368.78
2022-10-17T15:50:16.203Z,101380.50
2022-10-17T15:52:43.173Z,101375.13
2022-10-17T15:55:10.856Z,101374.94
2022-10-17T15:57:40.599Z,101373.34
2022-10-17T16:00:16.734Z,101376.03
2022-10-17T16:02:43.500Z,101374.41
2022-10-17T16:05:15.955Z,101372.16
2022-10-17T16:07:45.970Z,101387.16
2022-10-17T16:10:13.894Z,101384.69
2022-10-17T16:12:41.339Z,101386.09
2022-10-17T16:15:14.428Z,101393.94
2022-10-17T16:17:41.084Z,101395.47
2022-10-17T16:20:08.058Z,101390.94
2022-10-17T16:22:37.683Z,101395.66
2022-10-17T16:25:10.076Z,101395.25
2022-10-17T16:27:37.175Z,101397.16
2022-10-17T16:30:07.802Z,101398.06
2022-10-17T16:32:34.189Z,101403.91
2022-10-17T16:35:00.527Z,101405.50
2022-10-17T16:37:26.950Z,101405.69
2022-10-17T16:39:53.602Z,101405.66
2022-10-17T16:42:21.504Z,101403.34
2022-10-17T16:44:49.095Z,101411.91
2022-10-17T16:47:16.253Z,101412.34
2022-10-17T16:49:45.187Z,101420.88
2022-10-17T16:52:12.074Z,101416.03
2022-10-17T16:54:38.409Z,101424.41
2022-10-17T16:57:05.425Z,101428.75
2022-10-17T16:59:31.790Z,101429.22
2022-10-17T17:01:58.164Z,101435.22
2022-10-17T17:04:24.691Z,101434.56
2022-10-17T17:06:51.066Z,101444.44
2022-10-17T17:09:17.404Z,101436.25
2022-10-17T17:11:43.716Z,101447.50
2022-10-17T17:14:11.515Z,101445.63
2022-10-17T17:16:37.864Z,101451.63
2022-10-17T17:19:07.320Z,101449.41
2022-10-17T17:21:34.473Z,101448.56
2022-10-17T17:24:02.434Z,101447.03
2022-10-17T17:26:30.952Z,101448.44
2022-10-17T17:28:59.605Z,101446.75
2022-10-17T17:31:28.428Z,101451.91
2022-10-17T17:36:25.366Z,101455.00
2022-10-17T17:38:54.999Z,101458.91
2022-10-17T17:41:21.928Z,101458.25
2022-10-17T17:43:49.435Z,101457.75
2022-10-17T17:46:18.060Z,101462.66
2022-10-17T17:48:45.892Z,101454.00
2022-10-17T17:51:14.822Z,101459.75
2022-10-17T17:53:41.309Z,101464.22
2022-10-17T17:56:16.312Z,101464.38
2022-10-17T17:58:45.460Z,101465.59
2022-10-17T18:01:15.178Z,101463.91
2022-10-17T18:03:41.630Z,101469.69
2022-10-17T18:06:08.670Z,101465.09
2022-10-17T18:08:36.030Z,101473.09
2022-10-17T18:11:02.726Z,101474.09
2022-10-17T18:13:29.712Z,101476.81
2022-10-17T18:15:58.086Z,101479.88
2022-10-17T18:18:25.661Z,101489.34
2022-10-17T18:20:52.270Z,101481.03
2022-10-17T18:23:18.615Z,101488.47
2022-10-17T18:25:56.704Z,101486.59
2022-10-17T18:28:24.304Z,101497.13
2022-10-17T18:30:50.707Z,101491.16
2022-10-17T18:33:17.159Z,101501.19
2022-10-17T18:35:43.468Z,101498.59
2022-10-17T18:38:09.804Z,101508.75
2022-10-17T18:40:36.077Z,101508.97
2022-10-17T18:43:02.506Z,101505.56
2022-10-17T18:45:28.860Z,101511.66
2022-10-17T18:47:55.182Z,101513.84
2022-10-17T18:50:23.236Z,101508.28
2022-10-17T18:52:49.989Z,101504.16
2022-10-17T18:55:20.084Z,101506.22
2022-10-17T18:57:48.964Z,101508.06
2022-10-17T19:00:18.071Z,101505.34
2022-10-17T19:02:44.699Z,101503.66
2022-10-17T19:05:11.041Z,101507.22
2022-10-17T19:07:37.415Z,101515.16
2022-10-17T19:10:03.995Z,101510.22
2022-10-17T19:12:30.304Z,101509.88
2022-10-17T19:14:57.256Z,101512.53
2022-10-17T19:17:23.540Z,101510.81
2022-10-17T19:19:52.004Z,101507.22
2022-10-17T19:22:18.440Z,101505.53
2022-10-17T19:24:44.741Z,101506.69
2022-10-17T19:27:12.131Z,101500.56
2022-10-17T19:29:43.266Z,101500.75
2022-10-17T19:32:15.622Z,101494.91
2022-10-17T19:34:44.406Z,101487.31
2022-10-17T19:37:10.739Z,101494.00
2022-10-17T19:39:37.201Z,101485.84
2022-10-17T19:42:06.714Z,101490.59
2022-10-17T19:44:33.905Z,101483.31
2022-10-17T19:47:00.205Z,101483.13
2022-10-17T19:49:26.601Z,101483.50
2022-10-17T19:51:52.903Z,101488.63
2022-10-17T19:54:20.232Z,101487.94
2022-10-17T19:56:47.086Z,101489.97
2022-10-17T19:59:15.523Z,101486.53
2022-10-17T20:01:42.626Z,101488.00
2022-10-17T20:04:10.788Z,101491.88
2022-10-17T20:06:37.764Z,101486.75
2022-10-17T20:09:05.316Z,101481.50
2022-10-17T20:11:31.979Z,101494.22
2022-10-17T20:13:59.977Z,101496.53
2022-10-17T20:16:29.026Z,101495.00
2022-10-17T20:18:58.086Z,101485.69
2022-10-17T20:21:27.708Z,101494.53
2022-10-17T20:23:54.949Z,101495.69
2022-10-17T20:26:37.461Z,101491.84
2022-10-17T20:29:08.697Z,101505.41
2022-10-17T20:31:35.334Z,101500.81
2022-10-17T20:34:01.769Z,101496.25
2022-10-17T20:36:28.048Z,101508.81
2022-10-17T20:38:58.351Z,101498.56
2022-10-17T20:41:25.768Z,101505.69
2022-10-17T20:43:53.976Z,101504.75
2022-10-17T20:46:35.440Z,101507.09
2022-10-17T20:49:02.973Z,101497.88
2022-10-17T20:51:29.331Z,101506.03
2022-10-17T20:56:25.712Z,101502.28
2022-10-17T20:59:00.506Z,101501.78
2022-10-17T21:01:28.201Z,101498.22
2022-10-17T21:03:55.081Z,101506.34
2022-10-17T21:06:22.293Z,101511.44
2022-10-17T21:08:49.742Z,101511.38
2022-10-17T21:11:19.026Z,101501.53
2022-10-17T21:13:46.749Z,101506.41
2022-10-17T21:16:15.934Z,101500.31
2022-10-17T21:18:42.871Z,101507.25
2022-10-17T21:21:20.132Z,101510.38
2022-10-17T21:23:48.256Z,101513.25
2022-10-17T21:26:15.959Z,101519.91
2022-10-17T21:28:44.287Z,101521.00
2022-10-17T21:31:12.521Z,101516.84
2022-10-17T21:33:39.834Z,101520.25
2022-10-17T21:36:06.459Z,101517.22
2022-10-17T21:38:35.868Z,101514.81
2022-10-17T21:41:02.280Z,101508.00
2022-10-17T21:43:28.555Z,101512.97
2022-10-17T21:45:54.829Z,101507.78
2022-10-17T21:48:21.175Z,101510.81
2022-10-17T21:50:47.456Z,101513.81
2022-10-17T21:53:13.754Z,101514.13
2022-10-17T21:55:40.105Z,101512.78
2022-10-17T21:58:06.387Z,101525.75
2022-10-17T22:00:32.737Z,101526.34
2022-10-17T22:02:59.825Z,101517.84
2022-10-17T22:05:26.126Z,101515.13
2022-10-17T22:07:52.412Z,101511.72
2022-10-17T22:10:18.705Z,101520.56
2022-10-17T22:12:45.021Z,101512.97
2022-10-17T22:15:11.463Z,101516.69
2022-10-17T22:17:37.819Z,101498.72
2022-10-17T22:20:04.386Z,101500.25
2022-10-17T22:22:30.708Z,101499.41
2022-10-17T22:24:57.008Z,101492.44
2022-10-17T22:27:23.344Z,101496.84
2022-10-17T22:29:49.672Z,101491.66
2022-10-17T22:32:20.042Z,101500.16
2022-10-17T22:34:48.905Z,101500.84
2022-10-17T22:37:15.348Z,101505.75
2022-10-17T22:39:41.712Z,101499.00
2022-10-17T22:42:08.006Z,101502.34
2022-10-17T22:44:34.324Z,101500.09
2022-10-17T22:47:00.642Z,101490.94
2022-10-17T22:49:26.927Z,101488.56
2022-10-17T22:51:53.235Z,101495.69
2022-10-17T22:54:19.602Z,101482.69
2022-10-17T22:56:45.915Z,101489.84
2022-10-17T22:59:12.334Z,101492.84
2022-10-17T23:01:38.701Z,101491.47
2022-10-17T23:04:05.143Z,101488.03
2022-10-17T23:06:31.472Z,101498.75
2022-10-17T23:08:57.821Z,101489.78
2022-10-17T23:11:24.136Z,101496.31
2022-10-17T23:13:50.474Z,101491.75
2022-10-17T23:16:17.094Z,101491.91
2022-10-17T23:18:44.076Z,101488.19
2022-10-17T23:21:10.645Z,101491.75
2022-10-17T23:23:37.164Z,101476.66
2022-10-17T23:26:12.016Z,101476.66
2022-10-17T23:28:38.942Z,101473.63
2022-10-17T23:31:19.780Z,101476.91
2022-10-17T23:33:48.422Z,101482.50
2022-10-17T23:36:17.143Z,101484.34
2022-10-17T23:38:45.089Z,101481.78
2022-10-17T23:41:12.034Z,101478.06
2022-10-17T23:43:38.428Z,101474.34
2022-10-17T23:46:06.305Z,101480.63
2022-10-17T23:48:32.888Z,101483.34
2022-10-17T23:50:59.226Z,101473.34
2022-10-17T23:53:25.893Z,101465.38
2022-10-17T23:55:52.476Z,101470.06
2022-10-17T23:58:18.784Z,101461.41
